createdAt,value
2018-04-14T00:00:54.822Z,99.99
2018-04-14T00:01:54.847Z,99.99
2018-04-14T00:02:54.858Z,99.99
2018-04-14T00:03:54.884Z,99.99
2018-04-14T00:04:54.901Z,99.99
2018-04-14T00:05:54.921Z,99.99
2018-04-14T00:06:54.938Z,99.99
2018-04-14T00:07:54.960Z,99.99
2018-04-14T00:08:54.985Z,99.99
2018-04-14T00:09:55.005Z,99.99
2018-04-14T00:10:55.025Z,99.99
2018-04-14T00:11:55.045Z,99.99
2018-04-14T00:12:55.063Z,99.99
2018-04-14T00:13:55.083Z,99.99
2018-04-14T00:14:55.108Z,99.99
2018-04-14T00:15:55.123Z,99.99
2018-04-14T00:16:55.150Z,99.99
2018-04-14T00:17:55.164Z,99.99
2018-04-14T00:18:55.187Z,99.99
2018-04-14T00:19:55.204Z,99.99
2018-04-14T00:20:55.231Z,99.99
2018-04-14T00:21:55.243Z,99.99
2018-04-14T00:22:55.270Z,99.99
2018-04-14T00:23:55.283Z,99.99
2018-04-14T00:24:55.307Z,99.99
2018-04-14T00:25:55.325Z,99.99
2018-04-14T00:26:55.343Z,99.99
2018-04-14T00:27:55.365Z,99.99
2018-04-14T00:28:55.387Z,99.99
2018-04-14T00:29:55.411Z,99.99
2018-04-14T00:30:55.422Z,99.99
2018-04-14T00:31:55.451Z,99.99
2018-04-14T00:32:55.464Z,99.99
2018-04-14T00:33:55.489Z,99.99
2018-04-14T00:34:55.506Z,99.99
2018-04-14T00:35:55.529Z,99.99
2018-04-14T00:36:55.546Z,99.99
2018-04-14T00:37:55.567Z,99.99
2018-04-14T00:38:55.582Z,99.99
2018-04-14T00:39:55.611Z,99.99
2018-04-14T00:40:55.623Z,99.99
2018-04-14T00:41:55.645Z,99.99
2018-04-14T00:42:55.672Z,99.99
2018-04-14T00:43:55.693Z,99.99
2018-04-14T00:44:55.712Z,99.99
2018-04-14T00:45:55.724Z,99.99
2018-04-14T00:46:55.752Z,99.99
2018-04-14T00:47:55.763Z,99.99
2018-04-14T00:48:55.792Z,99.99
2018-04-14T00:49:55.812Z,99.99
2018-04-14T00:50:55.823Z,99.99
2018-04-14T00:51:55.853Z,99.99
2018-04-14T00:52:55.867Z,99.99
2018-04-14T00:53:55.891Z,99.99
2018-04-14T00:54:55.912Z,99.99
2018-04-14T00:55:55.931Z,99.99
2018-04-14T00:56:55.946Z,99.99
2018-04-14T00:57:55.973Z,99.99
2018-04-14T00:58:55.983Z,99.99
2018-04-14T00:59:56.012Z,99.99
2018-04-14T01:00:56.031Z,99.99
2018-04-14T01:01:56.051Z,99.99
2018-04-14T01:02:56.064Z,99.99
2018-04-14T01:03:56.086Z,99.99
2018-04-14T01:04:56.110Z,99.99
2018-04-14T01:05:56.126Z,99.99
2018-04-14T01:06:56.152Z,99.99
2018-04-14T01:07:56.169Z,99.99
2018-04-14T01:08:56.189Z,99.99
2018-04-14T01:09:56.207Z,99.99
2018-04-14T01:10:56.225Z,99.99
2018-04-14T01:11:56.246Z,99.99
2018-04-14T01:12:56.272Z,99.99
2018-04-14T01:13:56.292Z,99.99
2018-04-14T01:14:56.306Z,99.99
2018-04-14T01:15:56.330Z,99.99
2018-04-14T01:16:56.353Z,99.99
2018-04-14T01:17:56.364Z,99.99
2018-04-14T01:18:56.393Z,99.99
2018-04-14T01:19:56.409Z,99.99
2018-04-14T01:20:56.428Z,99.99
2018-04-14T01:21:56.447Z,99.99
2018-04-14T01:22:56.470Z,99.99
2018-04-14T01:23:56.492Z,99.99
2018-04-14T01:24:56.512Z,99.99
2018-04-14T01:25:56.528Z,99.99
2018-04-14T01:26:56.547Z,99.99
2018-04-14T01:27:56.564Z,99.99
2018-04-14T01:28:56.588Z,99.99
2018-04-14T01:29:56.612Z,99.99
2018-04-14T01:30:56.624Z,99.99
2018-04-14T01:31:56.647Z,99.99
2018-04-14T01:32:56.670Z,99.99
2018-04-14T01:33:56.688Z,99.99
2018-04-14T01:34:56.709Z,99.99
2018-04-14T01:35:56.728Z,99.99
2018-04-14T01:36:56.749Z,99.99
2018-04-14T01:37:56.765Z,99.99
2018-04-14T01:38:56.792Z,99.99
2018-04-14T01:39:56.803Z,99.99
2018-04-14T01:40:56.832Z,99.99
2018-04-14T01:41:56.851Z,99.99
2018-04-14T01:42:56.867Z,99.99
2018-04-14T01:43:56.887Z,99.99
2018-04-14T01:44:56.912Z,99.99
2018-04-14T01:45:56.938Z,99.99
2018-04-14T01:46:56.945Z,99.99
2018-04-14T01:47:56.965Z,99.99
2018-04-14T01:48:56.989Z,99.99
2018-04-14T01:49:57.014Z,99.99
2018-04-14T01:50:57.023Z,99.99
2018-04-14T01:51:57.046Z,99.99
2018-04-14T01:52:57.069Z,99.99
2018-04-14T01:53:57.090Z,99.99
2018-04-14T01:54:57.106Z,99.99
2018-04-14T01:55:57.122Z,99.99
2018-04-14T01:56:57.151Z,99.99
2018-04-14T01:57:57.167Z,99.99
2018-04-14T01:58:57.187Z,99.99
2018-04-14T01:59:57.210Z,99.99
2018-04-14T02:00:57.221Z,99.99
2018-04-14T02:01:57.241Z,99.99
2018-04-14T02:02:57.270Z,99.99
2018-04-14T02:03:57.286Z,99.99
2018-04-14T02:04:57.304Z,99.99
2018-04-14T02:05:57.322Z,99.99
2018-04-14T02:06:57.349Z,99.99
2018-04-14T02:07:57.366Z,99.99
2018-04-14T02:08:57.383Z,99.99
2018-04-14T02:09:57.404Z,99.99
2018-04-14T02:10:57.426Z,99.99
2018-04-14T02:11:57.449Z,99.99
2018-04-14T02:12:57.461Z,99.99
2018-04-14T02:13:57.481Z,99.99
2018-04-14T02:14:57.509Z,99.99
2018-04-14T02:15:57.521Z,99.99
2018-04-14T02:16:57.550Z,99.99
2018-04-14T02:17:57.565Z,99.99
2018-04-14T02:18:57.587Z,99.99
2018-04-14T02:19:57.609Z,99.99
2018-04-14T02:20:57.627Z,99.99
2018-04-14T02:21:57.644Z,99.99
2018-04-14T02:22:57.666Z,99.99
2018-04-14T02:23:57.683Z,99.99
2018-04-14T02:24:57.708Z,99.99
2018-04-14T02:25:57.726Z,99.99
2018-04-14T02:26:57.750Z,99.99
2018-04-14T02:27:57.766Z,99.99
2018-04-14T02:28:57.784Z,99.99
2018-04-14T02:29:57.805Z,99.99
2018-04-14T02:30:57.826Z,99.99
2018-04-14T02:31:57.849Z,99.99
2018-04-14T02:32:57.861Z,99.99
2018-04-14T02:33:57.883Z,99.99
2018-04-14T02:34:57.910Z,99.99
2018-04-14T02:35:57.922Z,99.99
2018-04-14T02:36:57.955Z,99.99
2018-04-14T02:37:57.962Z,99.56
2018-04-14T02:38:57.989Z,99.27
2018-04-14T02:39:58.007Z,99.46
2018-04-14T02:40:58.023Z,99.46
2018-04-14T02:41:58.053Z,99.46
2018-04-14T02:42:58.061Z,99.08
2018-04-14T02:43:58.084Z,99.85
2018-04-14T02:44:58.110Z,99.95
2018-04-14T02:45:58.181Z,99.46
2018-04-14T02:46:58.147Z,99.46
2018-04-14T02:47:58.162Z,99.46
2018-04-14T02:48:58.190Z,99.46
2018-04-14T02:49:58.211Z,99.18
2018-04-14T02:50:58.221Z,99.46
2018-04-14T02:51:58.243Z,98.99
2018-04-14T02:52:58.267Z,99.08
2018-04-14T02:53:58.285Z,99.37
2018-04-14T02:54:58.308Z,98.70
2018-04-14T02:55:58.323Z,99.66
2018-04-14T02:56:58.354Z,99.99
2018-04-14T02:57:58.399Z,99.46
2018-04-14T02:58:58.394Z,99.46
2018-04-14T02:59:58.406Z,99.99
2018-04-14T03:00:58.431Z,99.85
2018-04-14T03:01:58.445Z,99.99
2018-04-14T03:02:58.468Z,99.99
2018-04-14T03:03:58.490Z,99.95
2018-04-14T03:04:58.502Z,99.99
2018-04-14T03:05:58.523Z,99.99
2018-04-14T03:06:58.555Z,99.99
2018-04-14T03:07:58.568Z,99.99
2018-04-14T03:08:58.611Z,99.99
2018-04-14T03:09:58.609Z,99.95
2018-04-14T03:10:58.624Z,99.85
2018-04-14T03:11:58.641Z,99.99
2018-04-14T03:12:58.671Z,99.99
2018-04-14T03:13:58.692Z,99.99
2018-04-14T03:14:58.702Z,99.99
2018-04-14T03:15:58.725Z,99.99
2018-04-14T03:16:58.747Z,99.99
2018-04-14T03:17:58.763Z,99.99
2018-04-14T03:18:58.790Z,99.99
2018-04-14T03:19:58.802Z,99.99
2018-04-14T03:20:58.831Z,99.99
2018-04-14T03:21:58.846Z,99.99
2018-04-14T03:22:58.867Z,99.99
2018-04-14T03:23:58.895Z,99.99
2018-04-14T03:24:58.903Z,99.99
2018-04-14T03:25:58.926Z,99.99
2018-04-14T03:26:58.948Z,99.99
2018-04-14T03:27:58.972Z,99.99
2018-04-14T03:28:58.982Z,99.99
2018-04-14T03:29:59.009Z,99.99
2018-04-14T03:30:59.032Z,99.99
2018-04-14T03:31:59.042Z,99.99
2018-04-14T03:32:59.070Z,99.99
2018-04-14T03:33:59.091Z,99.99
2018-04-14T03:34:59.111Z,99.99
2018-04-14T03:35:59.131Z,99.99
2018-04-14T03:36:59.142Z,99.99
2018-04-14T03:37:59.169Z,99.99
2018-04-14T03:38:59.191Z,99.99
2018-04-14T03:39:59.203Z,99.99
2018-04-14T03:40:59.230Z,99.99
2018-04-14T03:41:59.248Z,99.99
2018-04-14T03:42:59.270Z,99.99
2018-04-14T03:43:59.284Z,99.99
2018-04-14T03:44:59.311Z,99.99
2018-04-14T03:45:59.326Z,99.99
2018-04-14T03:46:59.347Z,99.99
2018-04-14T03:47:59.372Z,99.99
2018-04-14T03:48:59.384Z,99.99
2018-04-14T03:49:59.404Z,99.99
2018-04-14T03:50:59.426Z,99.99
2018-04-14T03:51:59.444Z,99.99
2018-04-14T03:52:59.471Z,99.99
2018-04-14T03:53:59.492Z,99.99
2018-04-14T03:54:59.507Z,99.99
2018-04-14T03:55:59.533Z,99.99
2018-04-14T03:56:59.562Z,99.99
2018-04-14T03:57:59.567Z,99.99
2018-04-14T03:58:59.590Z,99.99
2018-04-14T03:59:59.614Z,99.99
2018-04-14T04:00:59.625Z,99.99
2018-04-14T04:01:59.646Z,99.99
2018-04-14T04:02:59.674Z,99.99
2018-04-14T04:03:59.690Z,99.99
2018-04-14T04:04:59.717Z,99.99
2018-04-14T04:05:59.728Z,99.99
2018-04-14T04:06:59.745Z,99.99
2018-04-14T04:07:59.773Z,99.99
2018-04-14T04:08:59.785Z,99.99
2018-04-14T04:09:59.811Z,99.99
2018-04-14T04:10:59.828Z,99.99
2018-04-14T04:11:59.847Z,99.99
2018-04-14T04:12:59.868Z,99.99
2018-04-14T04:13:59.887Z,99.99
2018-04-14T04:14:59.915Z,99.99
2018-04-14T04:15:59.926Z,99.99
2018-04-14T04:17:12.749Z,99.99
2018-04-14T04:17:59.963Z,99.99
2018-04-14T04:18:59.982Z,99.99
2018-04-14T04:20:00.009Z,99.99
2018-04-14T04:21:00.019Z,99.99
2018-04-14T04:22:00.040Z,99.99
2018-04-14T04:23:00.067Z,99.99
2018-04-14T04:24:00.085Z,99.99
2018-04-14T04:25:00.101Z,99.99
2018-04-14T04:26:00.127Z,99.99
2018-04-14T04:27:00.145Z,99.99
2018-04-14T04:28:00.175Z,99.99
2018-04-14T04:29:00.186Z,99.99
2018-04-14T04:30:00.210Z,99.99
2018-04-14T04:31:00.221Z,99.99
2018-04-14T04:32:00.248Z,99.99
2018-04-14T04:33:00.259Z,99.99
2018-04-14T04:34:00.281Z,99.99
2018-04-14T04:35:00.308Z,99.99
2018-04-14T04:36:00.321Z,99.99
2018-04-14T04:37:00.349Z,99.99
2018-04-14T04:38:00.364Z,99.99
2018-04-14T04:39:00.386Z,99.99
2018-04-14T04:40:00.408Z,99.99
2018-04-14T04:41:00.421Z,99.99
2018-04-14T04:42:00.447Z,99.99
2018-04-14T04:43:00.469Z,99.99
2018-04-14T04:44:00.487Z,99.99
2018-04-14T04:45:00.509Z,99.99
2018-04-14T04:46:00.521Z,99.99
2018-04-14T04:47:00.548Z,99.99
2018-04-14T04:48:00.560Z,99.99
2018-04-14T04:49:00.629Z,99.99
2018-04-14T04:50:00.608Z,99.99
2018-04-14T04:51:00.620Z,99.99
2018-04-14T04:52:00.650Z,99.99
2018-04-14T04:53:00.660Z,99.99
2018-04-14T04:54:00.686Z,99.99
2018-04-14T04:55:00.703Z,99.99
2018-04-14T04:56:00.719Z,99.99
2018-04-14T04:57:00.748Z,99.99
2018-04-14T04:58:00.770Z,99.99
2018-04-14T04:59:00.779Z,99.99
2018-04-14T05:00:00.803Z,99.99
2018-04-14T05:01:00.825Z,99.99
2018-04-14T05:02:00.842Z,99.99
2018-04-14T05:03:00.864Z,99.99
2018-04-14T05:04:00.884Z,99.99
2018-04-14T05:05:00.904Z,99.99
2018-04-14T05:06:00.925Z,99.99
2018-04-14T05:07:00.947Z,99.99
2018-04-14T05:08:00.963Z,99.99
2018-04-14T05:09:00.982Z,99.99
2018-04-14T05:10:01.000Z,99.99
2018-04-14T05:11:02.444Z,99.99
2018-04-14T05:12:01.040Z,99.99
2018-04-14T05:13:01.062Z,99.99
2018-04-14T05:14:01.076Z,99.99
2018-04-14T05:15:01.104Z,99.99
2018-04-14T05:16:01.119Z,99.99
2018-04-14T05:17:01.162Z,99.99
2018-04-14T05:18:01.164Z,99.99
2018-04-14T05:19:01.178Z,99.99
2018-04-14T05:20:01.194Z,99.99
2018-04-14T05:21:01.227Z,99.99
2018-04-14T05:22:01.238Z,99.99
2018-04-14T05:23:01.261Z,99.99
2018-04-14T05:24:01.283Z,99.99
2018-04-14T05:25:01.294Z,99.99
2018-04-14T05:26:01.320Z,99.99
2018-04-14T05:27:54.012Z,99.99
2018-04-14T05:28:01.360Z,99.99
2018-04-14T05:29:01.380Z,99.99
2018-04-14T05:30:01.393Z,99.99
2018-04-14T05:31:01.419Z,99.99
2018-04-14T05:32:01.431Z,99.99
2018-04-14T05:33:01.454Z,99.99
2018-04-14T05:35:01.499Z,99.99
2018-04-14T05:36:01.516Z,99.99
2018-04-14T05:37:01.547Z,99.99
2018-04-14T05:38:01.554Z,99.99
2018-04-14T05:39:01.582Z,99.99
2018-04-14T05:40:01.592Z,99.99
2018-04-14T05:41:01.622Z,99.99
2018-04-14T05:42:01.641Z,99.99
2018-04-14T05:43:01.656Z,99.99
2018-04-14T05:44:01.673Z,99.99
2018-04-14T05:45:01.699Z,99.99
2018-04-14T05:46:01.717Z,99.99
2018-04-14T05:47:01.732Z,99.99
2018-04-14T05:48:01.748Z,99.99
2018-04-14T05:49:01.772Z,99.99
2018-04-14T05:50:01.790Z,99.99
2018-04-14T05:51:01.816Z,99.99
2018-04-14T05:52:01.834Z,99.99
2018-04-14T05:53:01.852Z,99.99
2018-04-14T05:54:01.871Z,99.99
2018-04-14T05:55:01.891Z,99.99
2018-04-14T05:56:01.913Z,99.99
2018-04-14T05:57:01.928Z,99.99
2018-04-14T05:58:01.952Z,99.99
2018-04-14T05:59:01.971Z,99.99
2018-04-14T06:00:01.993Z,99.99
2018-04-14T06:01:02.003Z,99.99
2018-04-14T06:02:02.029Z,99.99
2018-04-14T06:03:02.046Z,99.99
2018-04-14T06:04:02.061Z,99.99
2018-04-14T06:05:02.091Z,99.99
2018-04-14T06:06:02.104Z,99.99
2018-04-14T06:07:02.129Z,99.99
2018-04-14T06:08:02.141Z,99.99
2018-04-14T06:09:02.188Z,99.99
2018-04-14T06:10:02.190Z,99.99
2018-04-14T06:11:02.203Z,99.99
2018-04-14T06:12:02.222Z,99.99
2018-04-14T06:13:02.244Z,99.99
2018-04-14T06:14:02.270Z,99.99
2018-04-14T06:15:02.280Z,99.99
2018-04-14T06:16:02.300Z,99.99
2018-04-14T06:17:02.327Z,99.99
2018-04-14T06:18:02.340Z,99.99
2018-04-14T06:19:02.363Z,99.99
2018-04-14T06:20:02.385Z,99.99
2018-04-14T06:21:02.397Z,99.99
2018-04-14T06:22:02.429Z,99.99
2018-04-14T06:23:02.435Z,99.99
2018-04-14T06:24:02.464Z,99.99
2018-04-14T06:25:02.481Z,99.99
2018-04-14T06:26:02.499Z,99.99
2018-04-14T06:27:02.522Z,99.99
2018-04-14T06:28:02.539Z,99.99
2018-04-14T06:29:02.558Z,99.99
2018-04-14T06:30:02.587Z,99.99
2018-04-14T06:31:02.599Z,99.99
2018-04-14T06:32:02.616Z,99.99
2018-04-14T06:33:02.639Z,99.99
2018-04-14T06:34:02.656Z,99.99
2018-04-14T06:35:02.679Z,99.99
2018-04-14T06:36:02.693Z,99.95
2018-04-14T06:37:02.719Z,99.75
2018-04-14T06:38:02.731Z,99.85
2018-04-14T06:39:02.759Z,99.46
2018-04-14T06:40:02.769Z,98.90
2018-04-14T06:41:02.801Z,98.99
2018-04-14T06:42:02.817Z,98.03
2018-04-14T06:43:02.842Z,96.89
2018-04-14T06:44:02.854Z,96.75
2018-04-14T06:45:02.876Z,95.98
2018-04-14T06:46:02.892Z,94.84
2018-04-14T06:47:02.918Z,94.46
2018-04-14T06:48:02.930Z,95.03
2018-04-14T06:49:02.958Z,93.70
2018-04-14T06:50:02.972Z,93.07
2018-04-14T06:51:02.996Z,91.64
2018-04-14T06:52:03.093Z,90.97
2018-04-14T06:53:03.082Z,90.69
2018-04-14T06:54:03.120Z,90.16
2018-04-14T06:55:03.108Z,90.45
2018-04-14T06:56:03.152Z,88.92
2018-04-14T06:57:03.266Z,87.43
2018-04-14T06:58:03.132Z,86.86
2018-04-14T06:59:03.161Z,85.94
2018-04-14T07:00:03.173Z,85.90
2018-04-14T07:01:03.204Z,87.10
2018-04-14T07:02:03.220Z,89.25
2018-04-14T07:03:03.248Z,90.40
2018-04-14T07:04:03.266Z,90.64
2018-04-14T07:05:03.282Z,91.60
2018-04-14T07:06:03.305Z,92.36
2018-04-14T07:07:03.324Z,92.26
2018-04-14T07:08:03.342Z,92.17
2018-04-14T07:09:03.375Z,92.41
2018-04-14T07:10:03.393Z,90.97
2018-04-14T07:11:03.408Z,91.07
2018-04-14T07:12:03.432Z,89.54
2018-04-14T07:13:03.456Z,89.83
2018-04-14T07:14:03.475Z,90.02
2018-04-14T07:15:03.498Z,88.73
2018-04-14T07:16:03.521Z,87.96
2018-04-14T07:17:03.532Z,86.82
2018-04-14T07:18:03.560Z,86.19
2018-04-14T07:19:03.577Z,84.95
2018-04-14T07:20:03.597Z,83.84
2018-04-14T07:21:03.629Z,83.08
2018-04-14T07:22:03.643Z,83.03
2018-04-14T07:23:03.666Z,81.97
2018-04-14T07:24:03.690Z,80.79
2018-04-14T07:25:03.703Z,82.03
2018-04-14T07:26:03.734Z,81.40
2018-04-14T07:27:03.745Z,80.25
2018-04-14T07:28:03.772Z,80.16
2018-04-14T07:29:03.792Z,80.25
2018-04-14T07:30:03.813Z,80.06
2018-04-14T07:31:03.843Z,81.93
2018-04-14T07:32:03.866Z,81.68
2018-04-14T07:33:03.891Z,80.63
2018-04-14T07:34:03.905Z,79.68
2018-04-14T07:35:03.929Z,79.39
2018-04-14T07:36:03.948Z,80.25
2018-04-14T07:37:03.975Z,82.22
2018-04-14T07:38:04.000Z,83.23
2018-04-14T07:39:04.023Z,83.37
2018-04-14T07:40:04.041Z,82.22
2018-04-14T07:41:04.069Z,82.41
2018-04-14T07:42:04.088Z,82.75
2018-04-14T07:43:04.109Z,83.61
2018-04-14T07:44:04.134Z,83.90
2018-04-14T07:45:04.172Z,84.66
2018-04-14T07:46:04.186Z,85.33
2018-04-14T07:47:04.197Z,85.42
2018-04-14T07:48:04.226Z,85.33
2018-04-14T07:49:04.242Z,84.66
2018-04-14T07:50:04.266Z,85.58
2018-04-14T07:51:04.294Z,85.86
2018-04-14T07:52:04.310Z,86.15
2018-04-14T07:53:04.340Z,85.81
2018-04-14T07:54:04.358Z,85.14
2018-04-14T07:55:04.383Z,84.76
2018-04-14T07:56:04.412Z,83.27
2018-04-14T07:57:04.427Z,82.56
2018-04-14T07:58:04.456Z,83.90
2018-04-14T07:59:04.469Z,84.56
2018-04-14T08:00:04.493Z,85.14
2018-04-14T08:01:04.518Z,85.24
2018-04-14T08:02:04.541Z,83.46
2018-04-14T08:03:04.559Z,83.08
2018-04-14T08:04:04.579Z,81.21
2018-04-14T08:05:04.611Z,80.25
2018-04-14T08:06:04.627Z,80.44
2018-04-14T08:07:04.651Z,80.40
2018-04-14T08:08:04.674Z,80.88
2018-04-14T08:09:04.697Z,80.69
2018-04-14T08:10:04.716Z,80.06
2018-04-14T08:11:04.745Z,79.20
2018-04-14T08:12:04.758Z,78.57
2018-04-14T08:13:04.791Z,77.70
2018-04-14T08:14:04.804Z,76.02
2018-04-14T08:15:04.834Z,74.87
2018-04-14T08:16:04.855Z,74.27
2018-04-14T08:17:04.887Z,72.94
2018-04-14T08:18:04.910Z,72.30
2018-04-14T08:19:04.929Z,71.78
2018-04-14T08:20:04.946Z,73.63
2018-04-14T08:21:04.971Z,76.65
2018-04-14T08:22:04.992Z,78.63
2018-04-14T08:23:05.024Z,79.73
2018-04-14T08:24:05.043Z,80.40
2018-04-14T08:25:05.065Z,80.50
2018-04-14T08:26:05.088Z,79.58
2018-04-14T08:27:05.115Z,78.47
2018-04-14T08:28:05.143Z,76.40
2018-04-14T08:29:05.157Z,76.56
2018-04-14T08:30:05.186Z,75.31
2018-04-14T08:31:05.207Z,77.51
2018-04-14T08:32:05.224Z,77.51
2018-04-14T08:33:05.247Z,75.10
2018-04-14T08:34:05.279Z,72.42
2018-04-14T08:35:05.301Z,71.44
2018-04-14T08:36:05.323Z,71.69
2018-04-14T08:37:05.341Z,73.63
2018-04-14T08:38:05.366Z,75.35
2018-04-14T08:39:05.392Z,75.54
2018-04-14T08:40:05.413Z,74.62
2018-04-14T08:41:05.441Z,75.16
2018-04-14T08:42:05.459Z,76.62
2018-04-14T08:43:05.490Z,77.95
2018-04-14T08:44:05.511Z,78.63
2018-04-14T08:45:05.542Z,79.77
2018-04-14T08:46:05.553Z,79.87
2018-04-14T08:47:05.584Z,79.96
2018-04-14T08:48:05.607Z,80.11
2018-04-14T08:49:05.631Z,79.14
2018-04-14T08:50:05.655Z,77.61
2018-04-14T08:51:05.676Z,78.05
2018-04-14T08:52:05.703Z,78.53
2018-04-14T08:53:05.722Z,77.86
2018-04-14T08:54:05.746Z,79.10
2018-04-14T08:55:05.802Z,80.06
2018-04-14T08:56:05.792Z,80.16
2018-04-14T08:57:05.814Z,79.39
2018-04-14T08:58:05.843Z,78.47
2018-04-14T08:59:05.857Z,75.29
2018-04-14T09:00:05.888Z,74.15
2018-04-14T09:01:05.935Z,74.84
2018-04-14T09:02:05.935Z,76.71
2018-04-14T09:03:05.954Z,77.95
2018-04-14T09:04:05.976Z,79.00
2018-04-14T09:05:06.002Z,78.43
2018-04-14T09:06:06.021Z,77.61
2018-04-14T09:07:06.046Z,77.86
2018-04-14T09:08:06.069Z,78.34
2018-04-14T09:09:06.101Z,79.54
2018-04-14T09:10:06.116Z,80.40
2018-04-14T09:11:06.143Z,81.07
2018-04-14T09:12:06.161Z,82.37
2018-04-14T09:13:06.188Z,82.46
2018-04-14T09:14:06.204Z,82.60
2018-04-14T09:15:06.235Z,82.28
2018-04-14T09:16:06.286Z,82.70
2018-04-14T09:17:06.281Z,81.74
2018-04-14T09:18:06.304Z,81.65
2018-04-14T09:19:06.323Z,80.40
2018-04-14T09:20:06.341Z,80.35
2018-04-14T09:21:06.366Z,79.96
2018-04-14T09:22:06.388Z,77.99
2018-04-14T09:23:06.410Z,77.61
2018-04-14T09:24:06.438Z,78.34
2018-04-14T09:25:06.454Z,79.29
2018-04-14T09:26:06.477Z,79.29
2018-04-14T09:27:06.512Z,79.96
2018-04-14T09:28:06.527Z,79.96
2018-04-14T09:29:06.551Z,79.49
2018-04-14T09:30:06.575Z,79.10
2018-04-14T09:31:06.599Z,77.33
2018-04-14T09:32:06.621Z,75.73
2018-04-14T09:33:06.640Z,75.45
2018-04-14T09:34:06.708Z,73.19
2018-04-14T09:35:06.678Z,73.66
2018-04-14T09:36:06.706Z,73.09
2018-04-14T09:37:06.749Z,72.84
2018-04-14T09:38:06.753Z,72.71
2018-04-14T09:39:06.777Z,73.28
2018-04-14T09:40:06.801Z,74.01
2018-04-14T09:41:06.860Z,75.41
2018-04-14T09:42:06.851Z,76.84
2018-04-14T09:43:06.869Z,77.09
2018-04-14T09:44:06.889Z,77.38
2018-04-14T09:45:06.915Z,76.65
2018-04-14T09:46:06.932Z,76.37
2018-04-14T09:47:06.962Z,77.46
2018-04-14T09:48:06.979Z,75.45
2018-04-14T09:49:07.012Z,75.64
2018-04-14T09:50:07.030Z,74.65
2018-04-14T09:51:07.053Z,76.46
2018-04-14T09:52:07.070Z,76.56
2018-04-14T09:53:07.101Z,77.04
2018-04-14T09:54:07.119Z,77.13
2018-04-14T09:55:07.140Z,77.33
2018-04-14T09:56:07.164Z,77.57
2018-04-14T09:57:07.184Z,76.90
2018-04-14T09:58:07.217Z,77.57
2018-04-14T09:59:07.234Z,76.94
2018-04-14T10:00:07.259Z,77.09
2018-04-14T10:01:07.279Z,76.65
2018-04-14T10:02:07.308Z,76.65
2018-04-14T10:03:07.323Z,76.37
2018-04-14T10:04:07.353Z,76.71
2018-04-14T10:05:07.368Z,77.00
2018-04-14T10:06:07.400Z,76.90
2018-04-14T10:07:07.413Z,77.23
2018-04-14T10:08:07.444Z,76.94
2018-04-14T10:09:07.466Z,76.08
2018-04-14T10:10:07.480Z,76.21
2018-04-14T10:11:07.507Z,76.40
2018-04-14T10:12:07.527Z,76.21
2018-04-14T10:13:07.557Z,75.98
2018-04-14T10:14:13.881Z,76.90
2018-04-14T10:15:07.605Z,78.43
2018-04-14T10:16:07.628Z,78.24
2018-04-14T10:17:07.648Z,78.34
2018-04-14T10:18:07.675Z,77.67
2018-04-14T10:19:07.687Z,78.34
2018-04-14T10:20:07.713Z,78.43
2018-04-14T10:21:07.738Z,78.53
2018-04-14T10:22:07.764Z,77.95
2018-04-14T10:23:07.778Z,77.80
2018-04-14T10:24:07.832Z,77.61
2018-04-14T10:25:07.827Z,76.65
2018-04-14T10:26:07.846Z,76.65
2018-04-14T10:27:07.917Z,76.94
2018-04-14T10:28:07.895Z,76.84
2018-04-14T10:29:07.914Z,76.46
2018-04-14T10:30:07.943Z,76.84
2018-04-14T10:31:07.957Z,76.46
2018-04-14T10:32:07.987Z,76.37
2018-04-14T10:33:08.003Z,76.37
2018-04-14T10:34:08.025Z,76.46
2018-04-14T10:35:08.054Z,75.07
2018-04-14T10:36:08.070Z,73.91
2018-04-14T10:37:08.100Z,74.40
2018-04-14T10:38:08.186Z,74.30
2018-04-14T10:39:08.140Z,73.72
2018-04-14T10:40:08.158Z,74.84
2018-04-14T10:41:08.186Z,75.60
2018-04-14T10:42:08.209Z,75.60
2018-04-14T10:43:08.227Z,75.16
2018-04-14T10:44:08.259Z,74.40
2018-04-14T10:45:08.273Z,74.68
2018-04-14T10:46:08.303Z,74.11
2018-04-14T10:47:08.324Z,74.58
2018-04-14T10:48:08.346Z,74.97
2018-04-14T10:49:08.367Z,75.45
2018-04-14T10:50:08.397Z,74.30
2018-04-14T10:51:08.420Z,74.58
2018-04-14T10:52:08.436Z,74.20
2018-04-14T10:53:08.460Z,74.20
2018-04-14T10:54:08.480Z,73.82
2018-04-14T10:55:08.506Z,74.11
2018-04-14T10:56:08.535Z,73.91
2018-04-14T10:57:08.553Z,75.26
2018-04-14T10:58:08.575Z,74.40
2018-04-14T10:59:08.594Z,74.49
2018-04-14T11:00:08.621Z,73.44
2018-04-14T11:01:08.640Z,73.72
2018-04-14T11:02:08.663Z,74.58
2018-04-14T11:03:08.690Z,74.01
2018-04-14T11:04:08.714Z,73.47
2018-04-14T11:05:08.733Z,70.00
2018-04-14T11:06:08.761Z,69.39
2018-04-14T11:07:08.777Z,70.06
2018-04-14T11:08:08.798Z,70.44
2018-04-14T11:09:08.828Z,70.83
2018-04-14T11:10:08.849Z,70.73
2018-04-14T11:11:08.868Z,71.46
2018-04-14T11:12:08.896Z,70.25
2018-04-14T11:13:08.919Z,70.35
2018-04-14T11:14:08.938Z,69.52
2018-04-14T11:15:08.964Z,69.48
2018-04-14T11:16:08.986Z,69.87
2018-04-14T11:17:09.012Z,69.01
2018-04-14T11:18:09.034Z,69.29
2018-04-14T11:19:09.057Z,69.04
2018-04-14T11:20:09.075Z,69.58
2018-04-14T11:21:09.106Z,69.29
2018-04-14T11:22:09.125Z,69.39
2018-04-14T11:23:09.149Z,69.29
2018-04-14T11:24:09.178Z,69.68
2018-04-14T11:25:09.194Z,69.68
2018-04-14T11:26:09.224Z,66.33
2018-04-14T11:27:09.238Z,62.35
2018-04-14T11:28:09.264Z,61.43
2018-04-14T11:29:09.284Z,60.37
2018-04-14T11:30:09.309Z,60.78
2018-04-14T11:31:09.335Z,61.58
2018-04-14T11:32:09.362Z,62.04
2018-04-14T11:33:09.383Z,59.89
2018-04-14T11:34:09.415Z,59.54
2018-04-14T11:35:09.432Z,62.26
2018-04-14T11:36:09.456Z,64.47
2018-04-14T11:37:09.483Z,65.30
2018-04-14T11:38:09.504Z,65.97
2018-04-14T11:39:09.536Z,66.71
2018-04-14T11:40:09.560Z,66.74
2018-04-14T11:41:09.579Z,66.83
2018-04-14T11:42:09.608Z,66.10
2018-04-14T11:43:09.627Z,65.91
2018-04-14T11:44:09.650Z,65.59
2018-04-14T11:45:09.677Z,65.33
2018-04-14T11:46:09.701Z,65.72
2018-04-14T11:47:09.723Z,64.85
2018-04-14T11:48:09.755Z,65.14
2018-04-14T11:49:09.772Z,64.31
2018-04-14T11:50:09.797Z,62.26
2018-04-14T11:51:09.830Z,61.01
2018-04-14T11:52:09.845Z,60.56
2018-04-14T11:53:09.878Z,60.08
2018-04-14T11:54:09.903Z,58.76
2018-04-14T11:55:09.919Z,59.47
2018-04-14T11:56:09.952Z,59.82
2018-04-14T11:57:09.968Z,55.60
2018-04-14T11:58:09.996Z,52.71
2018-04-14T11:59:10.025Z,52.87
2018-04-14T12:00:10.048Z,53.00
2018-04-14T12:01:10.076Z,52.33
2018-04-14T12:02:10.099Z,51.97
2018-04-14T12:03:10.122Z,51.94
2018-04-14T12:04:10.151Z,52.04
2018-04-14T12:05:10.175Z,52.52
2018-04-14T12:06:10.206Z,52.52
2018-04-14T12:07:10.225Z,53.88
2018-04-14T12:08:10.260Z,56.43
2018-04-14T12:09:10.278Z,57.70
2018-04-14T12:10:10.306Z,57.42
2018-04-14T12:11:10.339Z,55.62
2018-04-14T12:12:10.358Z,54.42
2018-04-14T12:13:10.394Z,52.35
2018-04-14T12:14:10.417Z,52.04
2018-04-14T12:15:10.441Z,52.52
2018-04-14T12:16:10.472Z,54.87
2018-04-14T12:17:10.496Z,55.35
2018-04-14T12:18:10.527Z,55.88
2018-04-14T12:19:10.552Z,58.83
2018-04-14T12:20:10.578Z,57.37
2018-04-14T12:21:10.608Z,55.23
2018-04-14T12:22:10.633Z,56.74
2018-04-14T12:23:10.665Z,57.51
2018-04-14T12:24:10.685Z,55.57
2018-04-14T12:25:10.720Z,53.84
2018-04-14T12:26:10.748Z,55.33
2018-04-14T12:27:10.766Z,57.60
2018-04-14T12:28:10.802Z,58.64
2018-04-14T12:29:10.820Z,59.09
2018-04-14T12:30:10.857Z,59.38
2018-04-14T12:31:10.875Z,58.73
2018-04-14T12:32:10.911Z,57.47
2018-04-14T12:33:10.937Z,54.52
2018-04-14T12:34:10.958Z,55.20
2018-04-14T12:35:10.987Z,57.93
2018-04-14T12:36:11.011Z,58.54
2018-04-14T12:37:11.050Z,59.12
2018-04-14T12:38:11.077Z,60.40
2018-04-14T12:39:11.093Z,61.55
2018-04-14T12:40:11.128Z,61.75
2018-04-14T12:41:11.150Z,60.69
2018-04-14T12:42:11.175Z,61.91
2018-04-14T12:43:11.207Z,61.46
2018-04-14T12:44:11.227Z,62.04
2018-04-14T12:45:11.262Z,61.01
2018-04-14T12:46:11.278Z,60.60
2018-04-14T12:47:11.313Z,60.88
2018-04-14T12:48:11.339Z,61.08
2018-04-14T12:49:11.365Z,61.91
2018-04-14T12:50:11.417Z,62.87
2018-04-14T12:51:11.417Z,63.35
2018-04-14T12:52:11.436Z,62.35
2018-04-14T12:53:11.466Z,60.43
2018-04-14T12:54:11.486Z,60.60